createdAt,value
2023-05-08T00:00:30.015Z,0.68
2023-05-08T00:02:56.272Z,0.63
2023-05-08T00:05:22.632Z,0.47
2023-05-08T00:07:50.499Z,0.60
2023-05-08T00:10:16.696Z,0.40
2023-05-08T00:12:42.870Z,0.70
2023-05-08T00:15:09.763Z,0.47
2023-05-08T00:17:35.936Z,0.65
2023-05-08T00:20:02.690Z,0.60
2023-05-08T00:22:28.840Z,0.73
2023-05-08T00:24:54.970Z,0.50
2023-05-08T00:27:21.103Z,0.80
2023-05-08T00:29:48.145Z,0.68
2023-05-08T00:32:14.339Z,0.60
2023-05-08T00:34:40.512Z,0.60
2023-05-08T00:37:06.726Z,0.50
2023-05-08T00:39:32.850Z,0.55
2023-05-08T00:41:59.019Z,0.63
2023-05-08T00:44:25.348Z,0.60
2023-05-08T00:46:51.779Z,0.50
2023-05-08T00:49:18.630Z,0.65
2023-05-08T00:51:51.885Z,0.70
2023-05-08T00:54:18.660Z,0.77
2023-05-08T00:56:45.414Z,0.65
2023-05-08T00:59:13.911Z,0.50
2023-05-08T01:01:40.570Z,0.50
2023-05-08T01:04:07.352Z,0.63
2023-05-08T01:06:33.760Z,0.60
2023-05-08T01:09:00.332Z,0.70
2023-05-08T01:11:53.705Z,0.80
2023-05-08T01:14:53.506Z,0.63
2023-05-08T01:17:36.128Z,0.52
2023-05-08T01:20:24.592Z,0.70
2023-05-08T01:22:59.061Z,0.77
2023-05-08T01:26:06.693Z,0.70
2023-05-08T01:29:12.705Z,0.65
2023-05-08T01:32:06.243Z,0.60
2023-05-08T01:34:34.880Z,0.70
2023-05-08T01:37:04.675Z,0.70
2023-05-08T01:40:06.847Z,0.68
2023-05-08T01:43:09.791Z,0.60
2023-05-08T01:45:39.757Z,0.60
2023-05-08T01:48:11.346Z,0.70
2023-05-08T01:50:54.827Z,0.70
2023-05-08T01:53:28.910Z,0.52
2023-05-08T01:56:00.348Z,0.80
2023-05-08T01:58:28.327Z,0.70
2023-05-08T02:00:55.465Z,0.80
2023-05-08T02:03:23.727Z,0.80
2023-05-08T02:05:51.886Z,0.70
2023-05-08T02:08:20.600Z,0.85
2023-05-08T02:10:49.596Z,0.70
2023-05-08T02:13:19.365Z,0.70
2023-05-08T02:15:48.504Z,1.00
2023-05-08T02:18:18.153Z,0.60
2023-05-08T02:20:44.354Z,0.70
2023-05-08T02:23:11.039Z,0.65
2023-05-08T02:25:38.377Z,0.75
2023-05-08T02:28:06.996Z,0.68
2023-05-08T02:30:33.899Z,0.70
2023-05-08T02:33:01.160Z,0.40
2023-05-08T02:35:30.280Z,0.60
2023-05-08T02:37:57.971Z,0.80
2023-05-08T02:40:27.364Z,0.50
2023-05-08T02:42:54.360Z,0.70
2023-05-08T02:45:25.130Z,0.60
2023-05-08T02:48:01.045Z,0.70
2023-05-08T02:50:50.050Z,0.68
2023-05-08T02:53:24.176Z,0.60
2023-05-08T02:56:02.565Z,0.77
2023-05-08T02:58:42.868Z,0.75
2023-05-08T03:01:29.478Z,0.50
2023-05-08T03:04:04.404Z,0.50
2023-05-08T03:06:38.008Z,0.65
2023-05-08T03:09:06.204Z,0.70
2023-05-08T03:11:41.661Z,0.60
2023-05-08T03:14:13.749Z,0.65
2023-05-08T03:16:44.184Z,0.70
2023-05-08T03:19:18.631Z,0.90
2023-05-08T03:21:46.677Z,0.60
2023-05-08T03:24:16.872Z,0.60
2023-05-08T03:26:43.995Z,0.47
2023-05-08T03:29:12.534Z,0.82
2023-05-08T03:31:39.810Z,0.57
2023-05-08T03:34:07.755Z,0.60
2023-05-08T03:36:34.626Z,0.60
2023-05-08T03:39:00.938Z,0.60
2023-05-08T03:41:27.292Z,0.70
2023-05-08T03:43:55.423Z,0.60
2023-05-08T03:46:22.584Z,0.50
2023-05-08T03:48:49.921Z,0.60
2023-05-08T03:51:16.696Z,0.50
2023-05-08T03:53:43.024Z,0.50
2023-05-08T03:56:09.163Z,0.68
2023-05-08T03:58:44.376Z,0.63
2023-05-08T04:01:19.562Z,0.80
2023-05-08T04:04:02.328Z,0.70
2023-05-08T04:06:50.505Z,0.60
2023-05-08T04:09:38.299Z,0.70
2023-05-08T04:12:17.834Z,0.60
2023-05-08T04:14:50.162Z,0.60
2023-05-08T04:17:27.627Z,0.60
2023-05-08T04:20:00.449Z,0.70
2023-05-08T04:22:28.921Z,0.60
2023-05-08T04:25:00.626Z,0.55
2023-05-08T04:27:28.068Z,0.68
2023-05-08T04:29:55.709Z,0.70
2023-05-08T04:32:22.491Z,0.70
2023-05-08T04:34:49.370Z,0.60
2023-05-08T04:37:27.645Z,0.60
2023-05-08T04:39:54.278Z,0.55
2023-05-08T04:42:20.857Z,0.60
2023-05-08T04:44:47.092Z,0.68
2023-05-08T04:47:13.834Z,0.65
2023-05-08T04:49:40.106Z,0.43
2023-05-08T04:52:07.115Z,0.50
2023-05-08T04:54:33.494Z,0.60
2023-05-08T04:57:00.129Z,0.70
2023-05-08T04:59:26.561Z,0.60
2023-05-08T05:01:52.909Z,0.80
2023-05-08T05:04:19.118Z,0.60
2023-05-08T05:06:45.307Z,0.50
2023-05-08T05:09:11.522Z,0.60
2023-05-08T05:11:37.641Z,0.80
2023-05-08T05:14:03.958Z,0.75
2023-05-08T05:16:30.270Z,0.80
2023-05-08T05:18:56.494Z,0.80
2023-05-08T05:21:22.699Z,1.00
2023-05-08T05:23:48.795Z,0.80
2023-05-08T05:26:14.917Z,1.20
2023-05-08T05:28:41.072Z,0.82
2023-05-08T05:31:07.355Z,0.98
2023-05-08T05:33:33.515Z,0.90
2023-05-08T05:35:59.957Z,0.90
2023-05-08T05:38:26.176Z,1.02
2023-05-08T05:40:52.380Z,0.90
2023-05-08T05:43:18.567Z,1.17
2023-05-08T05:45:44.695Z,1.50
2023-05-08T05:48:11.547Z,1.63
2023-05-08T05:50:37.750Z,1.50
2023-05-08T05:53:04.090Z,1.45
2023-05-08T05:55:30.312Z,1.38
2023-05-08T05:57:56.452Z,1.45
2023-05-08T06:00:22.625Z,1.35
2023-05-08T06:02:49.191Z,1.50
2023-05-08T06:05:15.476Z,1.20
2023-05-08T06:07:41.645Z,1.27
2023-05-08T06:10:08.169Z,1.58
2023-05-08T06:12:34.458Z,1.65
2023-05-08T06:15:00.670Z,1.55
2023-05-08T06:17:26.871Z,1.30
2023-05-08T06:19:55.353Z,1.50
2023-05-08T06:22:25.046Z,1.98
2023-05-08T06:24:54.388Z,1.75
2023-05-08T06:27:25.385Z,1.90
2023-05-08T06:29:52.513Z,1.70
2023-05-08T06:32:19.992Z,1.92
2023-05-08T06:34:46.088Z,1.50
2023-05-08T06:37:12.388Z,1.77
2023-05-08T06:39:38.943Z,1.50
2023-05-08T06:42:06.014Z,1.52
2023-05-08T06:44:34.720Z,1.58
2023-05-08T06:47:01.106Z,1.45
2023-05-08T06:49:27.238Z,1.48
2023-05-08T06:51:54.013Z,1.30
2023-05-08T06:54:21.555Z,1.23
2023-05-08T06:56:47.694Z,1.35
2023-05-08T06:59:13.789Z,1.60
2023-05-08T07:01:39.972Z,1.38
2023-05-08T07:04:06.297Z,1.30
2023-05-08T07:06:33.096Z,1.50
2023-05-08T07:08:59.355Z,1.30
2023-05-08T07:11:25.650Z,1.10
2023-05-08T07:13:51.854Z,1.17
2023-05-08T07:16:18.162Z,1.40
2023-05-08T07:18:44.436Z,1.50
2023-05-08T07:21:10.764Z,1.35
2023-05-08T07:23:37.000Z,1.33
2023-05-08T07:26:03.267Z,1.60
2023-05-08T07:28:29.388Z,1.10
2023-05-08T07:30:56.674Z,1.27
2023-05-08T07:33:22.948Z,1.35
2023-05-08T07:35:49.158Z,1.23
2023-05-08T07:38:15.320Z,1.27
2023-05-08T07:40:41.601Z,1.05
2023-05-08T07:43:07.774Z,1.50
2023-05-08T07:45:35.394Z,1.05
2023-05-08T07:48:01.609Z,0.90
2023-05-08T07:50:27.953Z,0.90
2023-05-08T07:52:54.130Z,1.08
2023-05-08T07:55:20.921Z,1.50
2023-05-08T07:57:47.145Z,1.33
2023-05-08T08:00:14.997Z,1.27
2023-05-08T08:02:41.867Z,1.27
2023-05-08T08:05:08.635Z,0.98
2023-05-08T08:07:35.235Z,0.95
2023-05-08T08:10:03.814Z,1.08
2023-05-08T08:12:30.972Z,1.00
2023-05-08T08:14:57.809Z,1.00
2023-05-08T08:17:25.020Z,1.35
2023-05-08T08:19:52.840Z,0.98
2023-05-08T08:22:19.450Z,1.05
2023-05-08T08:24:45.591Z,1.30
2023-05-08T08:27:11.965Z,1.08
2023-05-08T08:29:39.306Z,1.27
2023-05-08T08:32:06.015Z,1.10
2023-05-08T08:34:35.419Z,1.10
2023-05-08T08:37:01.546Z,1.00
2023-05-08T08:39:31.461Z,1.10
2023-05-08T08:41:58.140Z,1.13
2023-05-08T08:44:24.325Z,0.82
2023-05-08T08:46:52.059Z,0.90
2023-05-08T08:49:25.014Z,1.00
2023-05-08T08:52:01.484Z,1.15
2023-05-08T08:54:30.917Z,1.00
2023-05-08T08:57:01.304Z,1.30
2023-05-08T08:59:28.935Z,1.00
2023-05-08T09:02:00.751Z,0.90
2023-05-08T09:04:28.965Z,1.20
2023-05-08T09:06:55.627Z,1.20
2023-05-08T09:09:22.490Z,0.85
2023-05-08T09:11:48.781Z,0.90
2023-05-08T09:14:15.009Z,1.10
2023-05-08T09:16:41.276Z,1.00
2023-05-08T09:19:08.325Z,0.93
2023-05-08T09:21:34.756Z,1.23
2023-05-08T09:24:03.110Z,1.05
2023-05-08T09:26:33.313Z,0.93
2023-05-08T09:29:21.733Z,1.00
2023-05-08T09:31:50.356Z,1.00
2023-05-08T09:34:27.464Z,1.00
2023-05-08T09:37:09.328Z,1.00
2023-05-08T09:39:35.695Z,1.10
2023-05-08T09:42:05.409Z,1.23
2023-05-08T09:44:51.887Z,0.95
2023-05-08T09:47:21.118Z,1.20
2023-05-08T09:49:57.718Z,1.33
2023-05-08T09:52:25.203Z,1.30
2023-05-08T09:54:59.014Z,1.05
2023-05-08T09:57:29.036Z,1.13
2023-05-08T10:00:05.506Z,1.25
2023-05-08T10:02:32.368Z,1.10
2023-05-08T10:04:58.846Z,1.13
2023-05-08T10:07:33.236Z,0.95
2023-05-08T10:10:04.367Z,0.95
2023-05-08T10:12:31.282Z,1.20
2023-05-08T10:14:57.915Z,1.38
2023-05-08T10:17:52.263Z,1.23
2023-05-08T10:20:21.589Z,1.05
2023-05-08T10:22:48.652Z,1.00
2023-05-08T10:25:20.688Z,1.17
2023-05-08T10:27:54.861Z,1.20
2023-05-08T10:30:24.641Z,1.05
2023-05-08T10:32:56.138Z,1.30
2023-05-08T10:35:22.738Z,1.38
2023-05-08T10:37:49.703Z,1.20
2023-05-08T10:40:18.031Z,1.25
2023-05-08T10:42:45.401Z,1.40
2023-05-08T10:45:12.236Z,1.20
2023-05-08T10:47:45.196Z,0.90
2023-05-08T10:50:36.191Z,1.17
2023-05-08T10:53:07.235Z,1.20
2023-05-08T10:55:36.822Z,1.27
2023-05-08T10:58:14.602Z,1.23
2023-05-08T11:00:52.929Z,1.10
2023-05-08T11:03:30.365Z,0.93
2023-05-08T11:05:59.053Z,1.00
2023-05-08T11:08:27.377Z,0.80
2023-05-08T11:11:04.439Z,1.30
2023-05-08T11:13:37.421Z,1.20
2023-05-08T11:16:07.823Z,1.27
2023-05-08T11:18:48.588Z,1.17
2023-05-08T11:21:23.052Z,1.30
2023-05-08T11:23:56.987Z,1.05
2023-05-08T11:26:39.447Z,1.17
2023-05-08T11:29:16.152Z,1.20
2023-05-08T11:31:52.506Z,1.00
2023-05-08T11:34:45.182Z,1.10
2023-05-08T11:37:23.486Z,0.93
2023-05-08T11:39:50.099Z,1.02
2023-05-08T11:42:26.283Z,0.90
2023-05-08T11:45:06.034Z,1.08
2023-05-08T11:47:38.005Z,1.10
2023-05-08T11:50:05.340Z,1.15
2023-05-08T11:52:33.911Z,1.30
2023-05-08T11:55:10.740Z,1.20
2023-05-08T11:57:37.398Z,1.20
2023-05-08T12:00:09.050Z,1.20
2023-05-08T12:02:42.877Z,1.20
2023-05-08T12:05:10.345Z,1.17
2023-05-08T12:07:44.224Z,1.10
2023-05-08T12:10:10.635Z,1.23
2023-05-08T12:12:41.825Z,1.25
2023-05-08T12:15:13.286Z,1.42
2023-05-08T12:17:40.224Z,1.08
2023-05-08T12:20:18.907Z,1.10
2023-05-08T12:22:52.769Z,1.27
2023-05-08T12:25:19.665Z,1.23
2023-05-08T12:27:46.124Z,1.42
2023-05-08T12:30:14.137Z,1.27
2023-05-08T12:32:42.720Z,1.15
2023-05-08T12:35:10.756Z,1.17
2023-05-08T12:37:37.046Z,1.20
2023-05-08T12:40:04.513Z,1.20
2023-05-08T12:42:48.523Z,1.02
2023-05-08T12:45:18.330Z,1.10
2023-05-08T12:47:48.817Z,1.13
2023-05-08T12:50:16.380Z,1.10
2023-05-08T12:52:43.507Z,1.13
2023-05-08T12:55:29.662Z,1.00
2023-05-08T12:58:15.227Z,1.20
2023-05-08T13:00:46.707Z,1.52
2023-05-08T13:03:21.263Z,1.38
2023-05-08T13:05:47.584Z,1.25
2023-05-08T13:08:13.790Z,1.13
2023-05-08T13:10:48.967Z,1.25
2023-05-08T13:13:19.924Z,0.88
2023-05-08T13:15:47.247Z,1.00
2023-05-08T13:18:14.033Z,1.10
2023-05-08T13:20:40.622Z,1.13
2023-05-08T13:23:07.183Z,0.90
2023-05-08T13:25:34.739Z,1.20
2023-05-08T13:28:01.413Z,1.00
2023-05-08T13:30:27.740Z,1.00
2023-05-08T13:32:54.240Z,1.08
2023-05-08T13:35:21.108Z,0.98
2023-05-08T13:37:47.796Z,1.10
2023-05-08T13:40:14.808Z,0.93
2023-05-08T13:42:41.091Z,1.00
2023-05-08T13:45:10.806Z,1.45
2023-05-08T13:47:37.068Z,1.00
2023-05-08T13:50:03.397Z,1.10
2023-05-08T13:52:29.833Z,1.25
2023-05-08T13:54:57.384Z,0.93
2023-05-08T13:57:24.129Z,1.00
2023-05-08T13:59:50.263Z,1.08
2023-05-08T14:02:16.568Z,1.00
2023-05-08T14:04:42.915Z,1.17
2023-05-08T14:07:09.044Z,0.98
2023-05-08T14:09:35.173Z,1.00
2023-05-08T14:12:01.353Z,0.90
2023-05-08T14:14:27.472Z,0.93
2023-05-08T14:16:53.598Z,1.20
2023-05-08T14:19:19.724Z,0.93
2023-05-08T14:21:46.205Z,0.90
2023-05-08T14:24:12.327Z,1.00
2023-05-08T14:26:38.786Z,1.00
2023-05-08T14:29:05.405Z,0.90
2023-05-08T14:31:31.607Z,0.85
2023-05-08T14:33:57.736Z,1.10
2023-05-08T14:36:23.842Z,0.90
2023-05-08T14:38:50.611Z,1.05
2023-05-08T14:41:16.760Z,0.88
2023-05-08T14:43:43.241Z,1.15
2023-05-08T14:46:09.468Z,0.80
2023-05-08T14:48:35.596Z,1.10
2023-05-08T14:51:01.722Z,0.85
2023-05-08T14:53:27.964Z,1.00
2023-05-08T14:55:54.714Z,0.90
2023-05-08T14:58:21.122Z,1.20
2023-05-08T15:00:47.241Z,0.98
2023-05-08T15:03:13.449Z,0.80
2023-05-08T15:05:39.682Z,0.68
2023-05-08T15:08:05.934Z,0.90
2023-05-08T15:10:32.091Z,0.80
2023-05-08T15:12:58.366Z,0.60
2023-05-08T15:15:24.531Z,0.73
2023-05-08T15:17:50.730Z,0.70
2023-05-08T15:20:16.960Z,0.60
2023-05-08T15:22:43.309Z,0.50
2023-05-08T15:25:09.895Z,0.63
2023-05-08T15:27:36.012Z,0.70
2023-05-08T15:30:02.186Z,0.60
2023-05-08T15:32:28.550Z,0.30
2023-05-08T15:34:55.420Z,0.57
2023-05-08T15:37:21.539Z,0.55
2023-05-08T15:39:49.189Z,0.50
2023-05-08T15:42:15.479Z,0.40
2023-05-08T15:44:54.460Z,0.50
2023-05-08T15:47:22.388Z,0.50
2023-05-08T15:49:49.148Z,0.45
2023-05-08T15:52:17.933Z,0.40
2023-05-08T15:54:47.831Z,0.40
2023-05-08T15:57:14.058Z,0.50
2023-05-08T15:59:40.558Z,0.40
2023-05-08T16:02:07.584Z,0.55
2023-05-08T16:04:33.984Z,0.50
2023-05-08T16:07:00.207Z,0.40
2023-05-08T16:09:26.773Z,0.55
2023-05-08T16:11:52.982Z,0.63
2023-05-08T16:14:19.489Z,0.50
2023-05-08T16:16:45.879Z,0.60
2023-05-08T16:19:12.138Z,0.65
2023-05-08T16:21:38.276Z,0.70
2023-05-08T16:24:04.939Z,0.50
2023-05-08T16:26:31.067Z,0.60
2023-05-08T16:28:57.270Z,0.63
2023-05-08T16:31:23.397Z,0.45
2023-05-08T16:33:49.609Z,0.50
2023-05-08T16:36:15.914Z,0.50
2023-05-08T16:38:42.054Z,0.38
2023-05-08T16:41:09.416Z,0.50
2023-05-08T16:43:35.656Z,0.35
2023-05-08T16:46:04.754Z,0.30
2023-05-08T16:48:30.968Z,0.60
2023-05-08T16:50:57.240Z,0.63
2023-05-08T16:53:26.381Z,0.52
2023-05-08T16:55:53.522Z,0.60
2023-05-08T16:58:20.903Z,0.50
2023-05-08T17:00:47.072Z,0.50
2023-05-08T17:03:13.263Z,0.68
2023-05-08T17:05:40.315Z,0.70
2023-05-08T17:08:06.525Z,0.60
2023-05-08T17:10:32.653Z,0.70
2023-05-08T17:12:58.818Z,0.52
2023-05-08T17:15:24.945Z,0.63
2023-05-08T17:17:51.082Z,0.70
2023-05-08T17:20:17.269Z,0.70
2023-05-08T17:22:44.126Z,0.52
2023-05-08T17:25:10.346Z,0.70
2023-05-08T17:27:37.884Z,0.70
2023-05-08T17:30:05.369Z,0.50
2023-05-08T17:32:31.747Z,0.60
2023-05-08T17:34:58.416Z,0.63
2023-05-08T17:37:25.326Z,0.60
2023-05-08T17:39:51.488Z,0.68
2023-05-08T17:42:17.648Z,0.63
2023-05-08T17:44:43.850Z,0.70
2023-05-08T17:47:09.997Z,0.80
2023-05-08T17:49:36.141Z,0.50
2023-05-08T17:52:03.808Z,0.60
2023-05-08T17:54:30.122Z,0.52
2023-05-08T17:56:56.242Z,0.60
2023-05-08T17:59:22.481Z,0.70
2023-05-08T18:01:48.689Z,0.73
2023-05-08T18:04:14.942Z,0.60
2023-05-08T18:06:42.707Z,0.60
2023-05-08T18:09:08.814Z,0.60
2023-05-08T18:11:35.148Z,0.60
2023-05-08T18:14:01.280Z,0.60
2023-05-08T18:16:27.432Z,0.63
2023-05-08T18:18:53.693Z,0.73
2023-05-08T18:21:20.041Z,0.70
2023-05-08T18:23:46.286Z,0.63
2023-05-08T18:26:13.921Z,0.60
2023-05-08T18:28:40.080Z,0.68
2023-05-08T18:31:06.260Z,0.80
2023-05-08T18:33:32.502Z,0.63
2023-05-08T18:35:58.722Z,0.60
2023-05-08T18:38:24.911Z,0.68
2023-05-08T18:40:51.095Z,0.70
2023-05-08T18:43:17.216Z,0.60
2023-05-08T18:45:43.392Z,0.55
2023-05-08T18:48:10.199Z,0.60
2023-05-08T18:50:36.638Z,0.63
2023-05-08T18:53:02.744Z,0.60
2023-05-08T18:55:28.889Z,0.60
2023-05-08T18:57:55.001Z,0.77
2023-05-08T19:00:21.265Z,0.65
2023-05-08T19:02:47.497Z,0.70
2023-05-08T19:05:13.696Z,0.70
2023-05-08T19:07:39.835Z,0.70
2023-05-08T19:10:06.696Z,0.60
2023-05-08T19:12:32.861Z,0.75
2023-05-08T19:14:58.931Z,0.70
2023-05-08T19:17:25.106Z,0.50
2023-05-08T19:19:52.165Z,0.70
2023-05-08T19:22:18.490Z,0.70
2023-05-08T19:24:44.765Z,0.68
2023-05-08T19:27:10.888Z,0.80
2023-05-08T19:29:37.006Z,0.70
2023-05-08T19:32:03.264Z,0.70
2023-05-08T19:34:31.523Z,0.60
2023-05-08T19:36:57.814Z,0.65
2023-05-08T19:39:23.973Z,0.80
2023-05-08T19:41:50.280Z,0.60
2023-05-08T19:44:16.431Z,0.70
2023-05-08T19:46:42.931Z,0.52
2023-05-08T19:49:09.469Z,0.70
2023-05-08T19:51:35.734Z,0.80
2023-05-08T19:54:01.917Z,0.70
2023-05-08T19:56:28.076Z,0.60
2023-05-08T19:58:54.275Z,0.70
2023-05-08T20:01:20.533Z,0.60
2023-05-08T20:03:46.773Z,0.70
2023-05-08T20:06:13.159Z,1.00
2023-05-08T20:08:39.346Z,0.73
2023-05-08T20:11:07.259Z,0.80
2023-05-08T20:13:33.403Z,0.70
2023-05-08T20:15:59.697Z,0.77
2023-05-08T20:18:26.251Z,0.70
2023-05-08T20:20:52.385Z,0.63
2023-05-08T20:23:18.500Z,0.63
2023-05-08T20:25:47.499Z,0.75
2023-05-08T20:28:21.597Z,0.80
2023-05-08T20:30:48.865Z,0.70
2023-05-08T20:33:15.233Z,0.70
2023-05-08T20:35:41.383Z,0.70
2023-05-08T20:38:07.650Z,0.80
2023-05-08T20:40:33.718Z,0.70
2023-05-08T20:42:59.970Z,0.60
2023-05-08T20:45:26.141Z,0.60
2023-05-08T20:47:52.329Z,0.77
2023-05-08T20:50:18.615Z,0.65
2023-05-08T20:52:44.976Z,0.70
2023-05-08T20:55:11.307Z,0.60
2023-05-08T20:57:38.521Z,0.95
2023-05-08T21:00:05.458Z,0.70
2023-05-08T21:02:33.129Z,1.00
2023-05-08T21:04:59.377Z,0.80
2023-05-08T21:07:25.560Z,0.63
2023-05-08T21:09:51.696Z,0.70
2023-05-08T21:12:17.815Z,0.70
2023-05-08T21:14:43.945Z,0.68
2023-05-08T21:17:10.143Z,0.73
2023-05-08T21:19:36.926Z,0.60
2023-05-08T21:22:03.119Z,0.70
2023-05-08T21:24:29.231Z,0.60
2023-05-08T21:26:55.608Z,0.60
2023-05-08T21:29:21.734Z,0.60
2023-05-08T21:31:47.868Z,0.68
2023-05-08T21:34:14.715Z,0.70
2023-05-08T21:36:40.958Z,0.88
2023-05-08T21:39:07.464Z,0.80
2023-05-08T21:41:33.692Z,0.70
2023-05-08T21:43:59.832Z,0.98
2023-05-08T21:46:26.019Z,0.90
2023-05-08T21:48:52.078Z,0.65
2023-05-08T21:51:18.217Z,0.70
2023-05-08T21:53:44.333Z,0.98
2023-05-08T21:56:10.485Z,0.70
2023-05-08T21:58:36.683Z,1.15
2023-05-08T22:01:02.910Z,0.75
2023-05-08T22:03:29.935Z,0.90
2023-05-08T22:05:56.147Z,0.93
2023-05-08T22:08:22.248Z,0.77
2023-05-08T22:10:48.345Z,0.60
2023-05-08T22:13:14.672Z,0.80
2023-05-08T22:15:41.541Z,0.90
2023-05-08T22:18:07.768Z,0.65
2023-05-08T22:20:34.025Z,0.80
2023-05-08T22:23:00.287Z,0.93
2023-05-08T22:25:26.621Z,0.65
2023-05-08T22:27:52.865Z,0.90
2023-05-08T22:30:19.211Z,0.90
2023-05-08T22:32:52.295Z,0.77
2023-05-08T22:35:20.204Z,0.80
2023-05-08T22:37:46.365Z,0.70
2023-05-08T22:40:12.809Z,0.88
2023-05-08T22:42:39.432Z,0.85
2023-05-08T22:45:06.174Z,0.77
2023-05-08T22:47:33.416Z,0.68
2023-05-08T22:49:59.738Z,0.70
2023-05-08T22:52:25.905Z,0.70
2023-05-08T22:54:52.093Z,0.80
2023-05-08T22:57:18.300Z,0.80
2023-05-08T22:59:44.421Z,1.00
2023-05-08T23:02:10.550Z,0.90
2023-05-08T23:04:36.690Z,1.00
2023-05-08T23:07:03.104Z,1.00
2023-05-08T23:09:30.203Z,0.93
2023-05-08T23:11:56.368Z,0.85
2023-05-08T23:14:22.502Z,0.70
2023-05-08T23:16:48.689Z,0.80
2023-05-08T23:19:15.268Z,1.00
2023-05-08T23:21:41.493Z,0.90
2023-05-08T23:24:07.779Z,0.80
2023-05-08T23:26:34.003Z,0.90
2023-05-08T23:29:00.335Z,0.90
2023-05-08T23:31:26.876Z,0.90
2023-05-08T23:33:53.245Z,0.80
2023-05-08T23:36:19.443Z,0.90
2023-05-08T23:38:45.824Z,1.10
2023-05-08T23:41:12.045Z,0.60
2023-05-08T23:43:38.560Z,0.90
2023-05-08T23:46:05.827Z,0.80
2023-05-08T23:48:32.165Z,0.80
2023-05-08T23:50:58.278Z,0.90
2023-05-08T23:53:24.409Z,0.80
2023-05-08T23:55:51.702Z,0.70
2023-05-08T23:58:18.146Z,0.90
